Hovedside
METAR-TAF:

METAR-TAF

Lufthavner :

Teheran, Iran

breddegrad: 35-41N, lengdegrad: 051-21E, høyde over havet: 1204 m

Gjeldene værobservasjon

Denne rapporten ble laget for 18 minutter siden, klokken 17:00 UTC
Vind 6 kt fra Øst
Temperatur 37°C
Luftfuktighet 8%
Trykk 1003 hPa
Sikt 10 km eller mer
Få skyer i en høyde av 4000 ft

METAR: OIII 231700Z 09006KT 9999 FEW040 37/M03 Q1003 A2963 NOSIG

Tid: 21:48 (17:18 UTC)

Varsel

Denne rapporten ble laget for 6 timer og 8 minutter siden, klokken 11:10 UTC
Varsel gyldig fra 23. klokken 12 UTC til 24. klokken 18 UTC
Vind 8 kt fra Øst-sørøst
Sikt: 7000 m
Spredte skyer i en høyde av 10000 ft
Midlertidig
fra 23. klokken 12 UTC til 23. klokken 15 UTC
Vind 17 kt fra Øst-sørøst

TAF: OIII 231110Z 2312/2418 11004MPS 7000 SCT100 TEMPO 2312/2315 11009MPS

Værobservasjoner og værvarsel for over 4000 flyplasser (METAR- og TAF-rapporter).

Tilgjengelige stasjoner er representert av de røde og gule prikkene på kartet.

Hold musepekeren over prikken for å se navnet på stasjonen.

Klikk så for å se værobservasjoner og -varsler.

For å forandre kartet kan du klikke på den grønne knappen med svart kryss for å zoome inn, på den grønne knappen med strek for å zoome ut, eller på de grønne pilene for å se tilstøtende kart.


METAR-TAF: